sensor_id;sensor_type;location;lat;lon;timestamp;P1;durP1;ratioP1;P2;durP2;ratioP2
59161;SDS011;44942;48.936;8.260;2022-11-04T00:03:02;10.20;;;6.93;;
59161;SDS011;44942;48.936;8.260;2022-11-04T00:08:03;9.47;;;6.53;;
59161;SDS011;44942;48.936;8.260;2022-11-04T00:13:22;6.95;;;5.05;;
59161;SDS011;44942;48.936;8.260;2022-11-04T00:18:22;7.77;;;5.50;;
59161;SDS011;44942;48.936;8.260;2022-11-04T00:23:23;7.07;;;5.20;;
59161;SDS011;44942;48.936;8.260;2022-11-04T00:28:53;6.00;;;4.80;;
59161;SDS011;44942;48.936;8.260;2022-11-04T00:33:54;7.33;;;5.30;;
59161;SDS011;44942;48.936;8.260;2022-11-04T00:38:57;6.80;;;4.95;;
59161;SDS011;44942;48.936;8.260;2022-11-04T00:43:58;5.97;;;4.40;;
59161;SDS011;44942;48.936;8.260;2022-11-04T00:49:03;5.20;;;4.20;;
59161;SDS011;44942;48.936;8.260;2022-11-04T00:54:04;4.90;;;4.20;;
59161;SDS011;44942;48.936;8.260;2022-11-04T00:59:05;5.75;;;3.92;;
59161;SDS011;44942;48.936;8.260;2022-11-04T01:04:06;5.78;;;3.95;;
59161;SDS011;44942;48.936;8.260;2022-11-04T01:09:07;6.40;;;3.67;;
59161;SDS011;44942;48.936;8.260;2022-11-04T01:14:10;4.97;;;3.30;;
59161;SDS011;44942;48.936;8.260;2022-11-04T01:19:11;4.13;;;3.33;;
59161;SDS011;44942;48.936;8.260;2022-11-04T01:24:12;3.83;;;3.00;;
59161;SDS011;44942;48.936;8.260;2022-11-04T01:29:12;4.33;;;3.30;;
59161;SDS011;44942;48.936;8.260;2022-11-04T01:34:13;3.03;;;2.67;;
59161;SDS011;44942;48.936;8.260;2022-11-04T01:39:13;3.57;;;2.57;;
59161;SDS011;44942;48.936;8.260;2022-11-04T01:49:57;4.18;;;2.58;;
59161;SDS011;44942;48.936;8.260;2022-11-04T01:55:05;3.38;;;2.58;;
59161;SDS011;44942;48.936;8.260;2022-11-04T02:00:10;3.60;;;2.85;;
59161;SDS011;44942;48.936;8.260;2022-11-04T02:05:11;3.28;;;2.60;;
59161;SDS011;44942;48.936;8.260;2022-11-04T02:10:12;4.13;;;3.10;;
59161;SDS011;44942;48.936;8.260;2022-11-04T02:15:13;2.93;;;2.57;;
59161;SDS011;44942;48.936;8.260;2022-11-04T02:25:48;3.83;;;2.60;;
59161;SDS011;44942;48.936;8.260;2022-11-04T02:31:35;5.78;;;2.80;;
59161;SDS011;44942;48.936;8.260;2022-11-04T02:36:47;3.47;;;2.60;;
59161;SDS011;44942;48.936;8.260;2022-11-04T02:42:00;4.10;;;2.85;;
59161;SDS011;44942;48.936;8.260;2022-11-04T02:47:12;2.90;;;2.50;;
59161;SDS011;44942;48.936;8.260;2022-11-04T02:52:47;3.30;;;2.60;;
59161;SDS011;44942;48.936;8.260;2022-11-04T02:57:52;3.53;;;2.58;;
59161;SDS011;44942;48.936;8.260;2022-11-04T03:02:58;4.55;;;2.60;;
59161;SDS011;44942;48.936;8.260;2022-11-04T03:08:04;2.80;;;2.47;;
59161;SDS011;44942;48.936;8.260;2022-11-04T03:13:13;2.65;;;2.17;;
59161;SDS011;44942;48.936;8.260;2022-11-04T03:18:38;3.47;;;2.28;;
59161;SDS011;44942;48.936;8.260;2022-11-04T03:23:41;5.03;;;2.92;;
59161;SDS011;44942;48.936;8.260;2022-11-04T03:28:45;3.67;;;2.45;;
59161;SDS011;44942;48.936;8.260;2022-11-04T03:33:53;2.63;;;2.37;;
59161;SDS011;44942;48.936;8.260;2022-11-04T03:38:55;3.13;;;2.50;;
59161;SDS011;44942;48.936;8.260;2022-11-04T03:43:56;3.43;;;2.40;;
59161;SDS011;44942;48.936;8.260;2022-11-04T03:48:57;3.90;;;2.50;;
59161;SDS011;44942;48.936;8.260;2022-11-04T03:53:59;3.75;;;2.40;;
59161;SDS011;44942;48.936;8.260;2022-11-04T04:04:27;3.22;;;2.40;;
59161;SDS011;44942;48.936;8.260;2022-11-04T04:09:51;3.53;;;2.17;;
59161;SDS011;44942;48.936;8.260;2022-11-04T04:14:59;2.42;;;2.05;;
59161;SDS011;44942;48.936;8.260;2022-11-04T04:20:08;2.85;;;2.47;;
59161;SDS011;44942;48.936;8.260;2022-11-04T04:25:14;3.28;;;2.33;;
59161;SDS011;44942;48.936;8.260;2022-11-04T04:30:35;2.75;;;2.35;;
59161;SDS011;44942;48.936;8.260;2022-11-04T04:35:41;3.28;;;1.92;;
59161;SDS011;44942;48.936;8.260;2022-11-04T04:40:50;3.13;;;2.30;;
59161;SDS011;44942;48.936;8.260;2022-11-04T04:46:14;3.00;;;2.30;;
59161;SDS011;44942;48.936;8.260;2022-11-04T04:51:15;3.17;;;2.30;;
59161;SDS011;44942;48.936;8.260;2022-11-04T04:56:16;3.08;;;2.33;;
59161;SDS011;44942;48.936;8.260;2022-11-04T05:01:16;3.03;;;2.10;;
59161;SDS011;44942;48.936;8.260;2022-11-04T05:06:17;2.37;;;2.17;;
59161;SDS011;44942;48.936;8.260;2022-11-04T05:11:18;2.53;;;1.90;;
59161;SDS011;44942;48.936;8.260;2022-11-04T05:16:18;2.40;;;2.20;;
59161;SDS011;44942;48.936;8.260;2022-11-04T05:21:19;3.07;;;2.17;;
59161;SDS011;44942;48.936;8.260;2022-11-04T05:26:19;2.30;;;2.10;;
59161;SDS011;44942;48.936;8.260;2022-11-04T05:31:20;2.70;;;1.87;;
59161;SDS011;44942;48.936;8.260;2022-11-04T05:36:21;2.30;;;1.90;;
59161;SDS011;44942;48.936;8.260;2022-11-04T05:41:22;2.60;;;2.00;;
59161;SDS011;44942;48.936;8.260;2022-11-04T05:46:25;2.80;;;2.10;;
59161;SDS011;44942;48.936;8.260;2022-11-04T05:51:27;3.08;;;2.13;;
59161;SDS011;44942;48.936;8.260;2022-11-04T05:56:28;4.15;;;1.90;;
59161;SDS011;44942;48.936;8.260;2022-11-04T06:01:33;2.93;;;2.07;;
59161;SDS011;44942;48.936;8.260;2022-11-04T06:06:35;3.03;;;2.00;;
59161;SDS011;44942;48.936;8.260;2022-11-04T06:11:36;3.57;;;1.90;;
59161;SDS011;44942;48.936;8.260;2022-11-04T06:16:37;2.95;;;2.00;;
59161;SDS011;44942;48.936;8.260;2022-11-04T06:21:38;3.10;;;1.97;;
59161;SDS011;44942;48.936;8.260;2022-11-04T06:26:39;2.30;;;2.10;;
59161;SDS011;44942;48.936;8.260;2022-11-04T06:31:39;2.47;;;1.87;;
59161;SDS011;44942;48.936;8.260;2022-11-04T06:36:40;2.47;;;1.90;;
59161;SDS011;44942;48.936;8.260;2022-11-04T06:41:40;2.47;;;1.97;;
59161;SDS011;44942;48.936;8.260;2022-11-04T06:46:41;2.60;;;1.90;;
59161;SDS011;44942;48.936;8.260;2022-11-04T06:51:43;2.60;;;1.88;;
59161;SDS011;44942;48.936;8.260;2022-11-04T06:56:43;2.05;;;1.80;;
59161;SDS011;44942;48.936;8.260;2022-11-04T07:01:44;4.10;;;1.98;;
59161;SDS011;44942;48.936;8.260;2022-11-04T07:11:46;2.50;;;1.93;;
59161;SDS011;44942;48.936;8.260;2022-11-04T07:22:25;2.47;;;1.90;;
59161;SDS011;44942;48.936;8.260;2022-11-04T08:05:28;2.40;;;2.20;;
59161;SDS011;44942;48.936;8.260;2022-11-04T08:10:29;2.57;;;2.00;;
59161;SDS011;44942;48.936;8.260;2022-11-04T08:15:29;3.80;;;2.10;;
59161;SDS011;44942;48.936;8.260;2022-11-04T08:20:30;3.93;;;1.90;;
59161;SDS011;44942;48.936;8.260;2022-11-04T08:25:30;3.40;;;2.00;;
59161;SDS011;44942;48.936;8.260;2022-11-04T08:30:31;2.63;;;2.07;;
59161;SDS011;44942;48.936;8.260;2022-11-04T08:35:33;3.20;;;2.22;;
59161;SDS011;44942;48.936;8.260;2022-11-04T08:40:37;3.35;;;1.80;;
59161;SDS011;44942;48.936;8.260;2022-11-04T08:45:41;3.78;;;1.80;;
59161;SDS011;44942;48.936;8.260;2022-11-04T08:50:47;4.78;;;1.95;;
59161;SDS011;44942;48.936;8.260;2022-11-04T08:55:52;4.97;;;1.90;;
59161;SDS011;44942;48.936;8.260;2022-11-04T09:00:53;2.42;;;1.70;;
59161;SDS011;44942;48.936;8.260;2022-11-04T09:05:56;2.60;;;1.80;;
59161;SDS011;44942;48.936;8.260;2022-11-04T09:10:57;5.40;;;2.08;;
59161;SDS011;44942;48.936;8.260;2022-11-04T09:15:57;4.07;;;1.77;;
59161;SDS011;44942;48.936;8.260;2022-11-04T09:20:58;3.90;;;2.00;;
59161;SDS011;44942;48.936;8.260;2022-11-04T09:26:10;4.05;;;1.85;;
59161;SDS011;44942;48.936;8.260;2022-11-04T09:31:14;2.88;;;1.60;;
59161;SDS011;44942;48.936;8.260;2022-11-04T09:36:16;3.40;;;1.95;;
59161;SDS011;44942;48.936;8.260;2022-11-04T09:41:37;1.83;;;1.20;;
59161;SDS011;44942;48.936;8.260;2022-11-04T09:47:00;3.22;;;1.63;;
59161;SDS011;44942;48.936;8.260;2022-11-04T09:52:05;4.13;;;1.48;;
59161;SDS011;44942;48.936;8.260;2022-11-04T09:57:17;2.03;;;1.25;;
59161;SDS011;44942;48.936;8.260;2022-11-04T10:02:28;2.58;;;1.35;;
59161;SDS011;44942;48.936;8.260;2022-11-04T10:07:55;3.35;;;1.55;;
59161;SDS011;44942;48.936;8.260;2022-11-04T10:13:04;3.45;;;1.50;;
59161;SDS011;44942;48.936;8.260;2022-11-04T10:18:22;2.70;;;1.42;;
59161;SDS011;44942;48.936;8.260;2022-11-04T10:23:27;3.70;;;1.60;;
59161;SDS011;44942;48.936;8.260;2022-11-04T10:28:33;2.58;;;1.52;;
59161;SDS011;44942;48.936;8.260;2022-11-04T10:33:42;7.22;;;1.70;;
59161;SDS011;44942;48.936;8.260;2022-11-04T10:38:54;4.55;;;1.50;;
59161;SDS011;44942;48.936;8.260;2022-11-04T10:44:02;5.38;;;1.45;;
59161;SDS011;44942;48.936;8.260;2022-11-04T10:54:40;3.10;;;1.35;;
59161;SDS011;44942;48.936;8.260;2022-11-04T10:59:55;3.88;;;1.52;;
59161;SDS011;44942;48.936;8.260;2022-11-04T11:05:10;3.50;;;1.50;;
59161;SDS011;44942;48.936;8.260;2022-11-04T11:10:20;1.75;;;1.30;;
59161;SDS011;44942;48.936;8.260;2022-11-04T11:20:29;3.17;;;1.40;;
59161;SDS011;44942;48.936;8.260;2022-11-04T11:25:33;2.95;;;1.30;;
59161;SDS011;44942;48.936;8.260;2022-11-04T11:36:05;3.00;;;1.30;;
59161;SDS011;44942;48.936;8.260;2022-11-04T11:41:18;3.35;;;1.25;;
59161;SDS011;44942;48.936;8.260;2022-11-04T11:46:23;2.40;;;1.42;;
59161;SDS011;44942;48.936;8.260;2022-11-04T11:51:36;2.00;;;1.13;;
59161;SDS011;44942;48.936;8.260;2022-11-04T12:01:46;1.83;;;1.10;;
59161;SDS011;44942;48.936;8.260;2022-11-04T12:12:11;1.83;;;1.10;;
59161;SDS011;44942;48.936;8.260;2022-11-04T12:17:29;1.95;;;1.30;;
59161;SDS011;44942;48.936;8.260;2022-11-04T12:39:15;2.83;;;1.25;;
59161;SDS011;44942;48.936;8.260;2022-11-04T12:44:02;3.05;;;1.30;;
59161;SDS011;44942;48.936;8.260;2022-11-04T13:05:04;2.60;;;1.27;;
59161;SDS011;44942;48.936;8.260;2022-11-04T13:10:18;2.38;;;1.00;;
59161;SDS011;44942;48.936;8.260;2022-11-04T13:15:24;2.95;;;1.20;;
59161;SDS011;44942;48.936;8.260;2022-11-04T13:20:33;3.10;;;1.20;;
59161;SDS011;44942;48.936;8.260;2022-11-04T13:25:43;3.03;;;1.08;;
59161;SDS011;44942;48.936;8.260;2022-11-04T13:30:53;2.55;;;1.13;;
59161;SDS011;44942;48.936;8.260;2022-11-04T13:46:58;3.08;;;1.30;;
59161;SDS011;44942;48.936;8.260;2022-11-04T13:52:07;3.03;;;1.00;;
59161;SDS011;44942;48.936;8.260;2022-11-04T13:57:23;3.03;;;1.00;;
59161;SDS011;44942;48.936;8.260;2022-11-04T14:02:37;2.20;;;1.05;;
59161;SDS011;44942;48.936;8.260;2022-11-04T14:13:38;2.20;;;1.00;;
59161;SDS011;44942;48.936;8.260;2022-11-04T14:18:29;2.00;;;0.98;;
59161;SDS011;44942;48.936;8.260;2022-11-04T14:23:32;5.20;;;1.20;;
59161;SDS011;44942;48.936;8.260;2022-11-04T14:28:35;1.77;;;0.90;;
59161;SDS011;44942;48.936;8.260;2022-11-04T14:33:38;1.70;;;1.02;;
59161;SDS011;44942;48.936;8.260;2022-11-04T14:39:19;3.85;;;1.10;;
59161;SDS011;44942;48.936;8.260;2022-11-04T14:50:16;2.08;;;0.95;;
59161;SDS011;44942;48.936;8.260;2022-11-04T15:05:22;1.30;;;0.80;;
59161;SDS011;44942;48.936;8.260;2022-11-04T15:10:26;1.33;;;0.90;;
59161;SDS011;44942;48.936;8.260;2022-11-04T15:15:29;2.15;;;0.90;;
59161;SDS011;44942;48.936;8.260;2022-11-04T15:20:30;2.15;;;1.05;;
59161;SDS011;44942;48.936;8.260;2022-11-04T15:30:32;3.17;;;1.40;;
59161;SDS011;44942;48.936;8.260;2022-11-04T15:35:33;2.35;;;1.30;;
59161;SDS011;44942;48.936;8.260;2022-11-04T15:40:34;2.83;;;1.00;;
59161;SDS011;44942;48.936;8.260;2022-11-04T15:45:53;2.10;;;1.00;;
59161;SDS011;44942;48.936;8.260;2022-11-04T15:55:58;6.47;;;1.20;;
59161;SDS011;44942;48.936;8.260;2022-11-04T16:00:59;2.30;;;1.17;;
59161;SDS011;44942;48.936;8.260;2022-11-04T16:06:01;4.43;;;1.27;;
59161;SDS011;44942;48.936;8.260;2022-11-04T16:11:11;3.45;;;1.77;;
59161;SDS011;44942;48.936;8.260;2022-11-04T16:16:21;6.18;;;1.88;;
59161;SDS011;44942;48.936;8.260;2022-11-04T16:21:25;5.82;;;2.03;;
59161;SDS011;44942;48.936;8.260;2022-11-04T16:26:35;6.10;;;3.15;;
59161;SDS011;44942;48.936;8.260;2022-11-04T16:31:38;11.48;;;6.95;;
59161;SDS011;44942;48.936;8.260;2022-11-04T16:36:38;50.47;;;34.60;;
59161;SDS011;44942;48.936;8.260;2022-11-04T16:41:39;58.27;;;35.83;;
59161;SDS011;44942;48.936;8.260;2022-11-04T16:46:40;54.27;;;31.73;;
59161;SDS011;44942;48.936;8.260;2022-11-04T16:51:41;41.85;;;28.10;;
59161;SDS011;44942;48.936;8.260;2022-11-04T16:56:42;43.92;;;26.20;;
59161;SDS011;44942;48.936;8.260;2022-11-04T17:01:44;37.08;;;25.23;;
59161;SDS011;44942;48.936;8.260;2022-11-04T17:06:45;35.22;;;25.55;;
59161;SDS011;44942;48.936;8.260;2022-11-04T17:11:46;36.23;;;24.43;;
59161;SDS011;44942;48.936;8.260;2022-11-04T17:16:48;34.05;;;23.27;;
59161;SDS011;44942;48.936;8.260;2022-11-04T17:21:48;38.87;;;24.50;;
59161;SDS011;44942;48.936;8.260;2022-11-04T17:26:49;41.03;;;26.87;;
59161;SDS011;44942;48.936;8.260;2022-11-04T17:31:50;32.87;;;23.23;;
59161;SDS011;44942;48.936;8.260;2022-11-04T17:36:54;42.50;;;25.67;;
59161;SDS011;44942;48.936;8.260;2022-11-04T17:41:55;32.97;;;22.07;;
59161;SDS011;44942;48.936;8.260;2022-11-04T17:47:14;31.88;;;20.65;;
59161;SDS011;44942;48.936;8.260;2022-11-04T17:52:16;30.50;;;19.33;;
59161;SDS011;44942;48.936;8.260;2022-11-04T17:57:17;31.65;;;19.23;;
59161;SDS011;44942;48.936;8.260;2022-11-04T18:02:18;36.50;;;18.27;;
59161;SDS011;44942;48.936;8.260;2022-11-04T18:07:19;46.03;;;18.27;;
59161;SDS011;44942;48.936;8.260;2022-11-04T18:12:20;33.63;;;16.60;;
59161;SDS011;44942;48.936;8.260;2022-11-04T18:17:39;27.20;;;14.60;;
59161;SDS011;44942;48.936;8.260;2022-11-04T18:22:41;24.40;;;14.13;;
59161;SDS011;44942;48.936;8.260;2022-11-04T18:27:42;21.75;;;12.98;;
59161;SDS011;44942;48.936;8.260;2022-11-04T18:32:43;23.92;;;13.40;;
59161;SDS011;44942;48.936;8.260;2022-11-04T18:37:44;24.23;;;13.03;;
59161;SDS011;44942;48.936;8.260;2022-11-04T18:42:44;19.40;;;12.53;;
59161;SDS011;44942;48.936;8.260;2022-11-04T18:47:46;22.53;;;12.60;;
59161;SDS011;44942;48.936;8.260;2022-11-04T18:52:47;20.33;;;12.38;;
59161;SDS011;44942;48.936;8.260;2022-11-04T18:57:52;20.45;;;10.90;;
59161;SDS011;44942;48.936;8.260;2022-11-04T19:02:54;16.75;;;9.75;;
59161;SDS011;44942;48.936;8.260;2022-11-04T19:07:55;19.70;;;10.00;;
59161;SDS011;44942;48.936;8.260;2022-11-04T19:12:55;17.30;;;9.57;;
59161;SDS011;44942;48.936;8.260;2022-11-04T19:18:15;15.15;;;8.98;;
59161;SDS011;44942;48.936;8.260;2022-11-04T19:23:16;15.10;;;8.95;;
59161;SDS011;44942;48.936;8.260;2022-11-04T19:28:17;16.63;;;8.90;;
59161;SDS011;44942;48.936;8.260;2022-11-04T19:33:17;13.73;;;8.80;;
59161;SDS011;44942;48.936;8.260;2022-11-04T19:38:18;12.10;;;8.73;;
59161;SDS011;44942;48.936;8.260;2022-11-04T19:43:21;11.82;;;8.13;;
59161;SDS011;44942;48.936;8.260;2022-11-04T19:48:22;12.18;;;7.65;;
59161;SDS011;44942;48.936;8.260;2022-11-04T19:53:22;12.37;;;7.78;;
59161;SDS011;44942;48.936;8.260;2022-11-04T19:58:23;14.27;;;8.27;;
59161;SDS011;44942;48.936;8.260;2022-11-04T20:03:23;11.03;;;7.20;;
59161;SDS011;44942;48.936;8.260;2022-11-04T20:08:24;8.87;;;6.80;;
59161;SDS011;44942;48.936;8.260;2022-11-04T20:13:24;14.10;;;6.97;;
59161;SDS011;44942;48.936;8.260;2022-11-04T20:18:44;14.13;;;7.35;;
59161;SDS011;44942;48.936;8.260;2022-11-04T20:23:47;13.27;;;7.28;;
59161;SDS011;44942;48.936;8.260;2022-11-04T20:33:53;12.23;;;6.13;;
59161;SDS011;44942;48.936;8.260;2022-11-04T20:38:58;10.27;;;6.43;;
59161;SDS011;44942;48.936;8.260;2022-11-04T20:44:05;11.18;;;6.55;;
59161;SDS011;44942;48.936;8.260;2022-11-04T20:49:05;9.07;;;6.07;;
59161;SDS011;44942;48.936;8.260;2022-11-04T20:54:06;9.93;;;5.90;;
59161;SDS011;44942;48.936;8.260;2022-11-04T20:59:07;9.47;;;5.93;;
59161;SDS011;44942;48.936;8.260;2022-11-04T21:04:12;7.57;;;5.13;;
59161;SDS011;44942;48.936;8.260;2022-11-04T21:09:14;7.00;;;4.95;;
59161;SDS011;44942;48.936;8.260;2022-11-04T21:14:16;8.02;;;5.30;;
59161;SDS011;44942;48.936;8.260;2022-11-04T21:19:18;8.13;;;5.47;;
59161;SDS011;44942;48.936;8.260;2022-11-04T21:24:21;7.80;;;5.28;;
59161;SDS011;44942;48.936;8.260;2022-11-04T21:29:22;7.25;;;4.90;;
59161;SDS011;44942;48.936;8.260;2022-11-04T21:34:22;7.80;;;4.63;;
59161;SDS011;44942;48.936;8.260;2022-11-04T21:39:23;6.20;;;4.33;;
59161;SDS011;44942;48.936;8.260;2022-11-04T21:44:24;9.97;;;5.03;;
59161;SDS011;44942;48.936;8.260;2022-11-04T21:49:24;7.20;;;4.63;;
59161;SDS011;44942;48.936;8.260;2022-11-04T21:54:25;39.57;;;5.80;;
59161;SDS011;44942;48.936;8.260;2022-11-04T21:59:26;9.75;;;4.63;;
59161;SDS011;44942;48.936;8.260;2022-11-04T22:04:26;11.00;;;4.97;;
59161;SDS011;44942;48.936;8.260;2022-11-04T22:09:27;6.70;;;4.33;;
59161;SDS011;44942;48.936;8.260;2022-11-04T22:14:28;8.93;;;4.80;;
59161;SDS011;44942;48.936;8.260;2022-11-04T22:19:29;7.28;;;3.92;;
59161;SDS011;44942;48.936;8.260;2022-11-04T22:24:30;7.03;;;4.10;;
59161;SDS011;44942;48.936;8.260;2022-11-04T22:29:30;5.60;;;4.10;;
59161;SDS011;44942;48.936;8.260;2022-11-04T22:34:31;7.47;;;4.77;;
59161;SDS011;44942;48.936;8.260;2022-11-04T22:39:31;6.73;;;4.20;;
59161;SDS011;44942;48.936;8.260;2022-11-04T22:44:32;5.23;;;3.93;;
59161;SDS011;44942;48.936;8.260;2022-11-04T22:49:33;5.40;;;3.50;;
59161;SDS011;44942;48.936;8.260;2022-11-04T22:54:33;6.20;;;4.30;;
59161;SDS011;44942;48.936;8.260;2022-11-04T22:59:34;5.40;;;3.93;;
59161;SDS011;44942;48.936;8.260;2022-11-04T23:04:35;6.20;;;3.77;;
59161;SDS011;44942;48.936;8.260;2022-11-04T23:09:36;5.10;;;3.70;;
59161;SDS011;44942;48.936;8.260;2022-11-04T23:14:57;4.78;;;3.72;;
59161;SDS011;44942;48.936;8.260;2022-11-04T23:20:16;4.80;;;3.40;;
59161;SDS011;44942;48.936;8.260;2022-11-04T23:25:17;4.88;;;3.58;;
59161;SDS011;44942;48.936;8.260;2022-11-04T23:30:18;6.60;;;3.23;;
59161;SDS011;44942;48.936;8.260;2022-11-04T23:35:32;4.57;;;3.42;;
59161;SDS011;44942;48.936;8.260;2022-11-04T23:41:08;5.38;;;3.53;;
59161;SDS011;44942;48.936;8.260;2022-11-04T23:46:28;5.25;;;3.38;;
59161;SDS011;44942;48.936;8.260;2022-11-04T23:51:47;5.22;;;3.25;;
59161;SDS011;44942;48.936;8.260;2022-11-04T23:57:16;3.53;;;2.88;;
